sensor_id;sensor_type;location;lat;lon;timestamp;pressure;altitude;pressure_sealevel;temperature;humidity
76592;BME280;65481;47.600;19.682;2023-02-15T00:02:34;101959.38;;;-0.67;100.00
76592;BME280;65481;47.600;19.682;2023-02-15T00:07:35;101957.34;;;-0.74;100.00
76592;BME280;65481;47.600;19.682;2023-02-15T00:12:35;101963.50;;;-0.64;100.00
76592;BME280;65481;47.600;19.682;2023-02-15T00:17:36;101969.41;;;-0.86;100.00
76592;BME280;65481;47.600;19.682;2023-02-15T00:22:36;101965.88;;;-0.85;100.00
76592;BME280;65481;47.600;19.682;2023-02-15T00:27:37;101966.47;;;-0.82;100.00
76592;BME280;65481;47.600;19.682;2023-02-15T00:32:37;101974.97;;;-0.80;100.00
76592;BME280;65481;47.600;19.682;2023-02-15T00:37:38;101963.41;;;-1.00;100.00
76592;BME280;65481;47.600;19.682;2023-02-15T00:42:38;101971.59;;;-0.93;100.00
76592;BME280;65481;47.600;19.682;2023-02-15T00:47:39;101972.19;;;-1.14;100.00
76592;BME280;65481;47.600;19.682;2023-02-15T00:52:39;101964.16;;;-1.48;100.00
76592;BME280;65481;47.600;19.682;2023-02-15T00:57:40;101971.47;;;-1.29;100.00
76592;BME280;65481;47.600;19.682;2023-02-15T01:02:40;101964.59;;;-1.67;100.00
76592;BME280;65481;47.600;19.682;2023-02-15T01:07:41;101965.50;;;-1.68;100.00
76592;BME280;65481;47.600;19.682;2023-02-15T01:12:42;101960.66;;;-1.60;100.00
76592;BME280;65481;47.600;19.682;2023-02-15T01:17:42;101961.91;;;-1.65;100.00
76592;BME280;65481;47.600;19.682;2023-02-15T01:22:45;101964.19;;;-1.61;100.00
76592;BME280;65481;47.600;19.682;2023-02-15T01:27:46;101954.84;;;-1.50;100.00
76592;BME280;65481;47.600;19.682;2023-02-15T01:32:47;101955.56;;;-1.48;100.00
76592;BME280;65481;47.600;19.682;2023-02-15T01:37:48;101953.38;;;-1.55;100.00
76592;BME280;65481;47.600;19.682;2023-02-15T01:42:52;101948.44;;;-1.58;100.00
76592;BME280;65481;47.600;19.682;2023-02-15T01:53:22;101938.09;;;-1.71;100.00
76592;BME280;65481;47.600;19.682;2023-02-15T01:58:26;101938.41;;;-1.88;100.00
76592;BME280;65481;47.600;19.682;2023-02-15T02:08:55;101928.44;;;-2.07;100.00
76592;BME280;65481;47.600;19.682;2023-02-15T02:13:56;101931.56;;;-2.02;100.00
76592;BME280;65481;47.600;19.682;2023-02-15T02:35:23;101938.69;;;-2.19;100.00
76592;BME280;65481;47.600;19.682;2023-02-15T02:40:54;101936.41;;;-2.23;100.00
76592;BME280;65481;47.600;19.682;2023-02-15T02:46:02;101940.25;;;-2.29;100.00
76592;BME280;65481;47.600;19.682;2023-02-15T02:51:05;101950.78;;;-2.32;100.00
76592;BME280;65481;47.600;19.682;2023-02-15T02:56:06;101948.00;;;-2.29;100.00
76592;BME280;65481;47.600;19.682;2023-02-15T03:01:19;101945.69;;;-2.34;100.00
76592;BME280;65481;47.600;19.682;2023-02-15T03:06:50;101952.72;;;-2.36;100.00
76592;BME280;65481;47.600;19.682;2023-02-15T03:11:49;101948.59;;;-2.38;100.00
76592;BME280;65481;47.600;19.682;2023-02-15T03:16:51;101944.59;;;-2.57;100.00
76592;BME280;65481;47.600;19.682;2023-02-15T03:21:59;101955.69;;;-2.55;100.00
76592;BME280;65481;47.600;19.682;2023-02-15T03:27:14;101957.88;;;-2.76;100.00
76592;BME280;65481;47.600;19.682;2023-02-15T03:32:17;101957.00;;;-2.90;100.00
76592;BME280;65481;47.600;19.682;2023-02-15T03:42:30;101959.28;;;-3.12;100.00
76592;BME280;65481;47.600;19.682;2023-02-15T03:47:40;101954.19;;;-3.14;100.00
76592;BME280;65481;47.600;19.682;2023-02-15T03:52:42;101963.59;;;-3.13;100.00
76592;BME280;65481;47.600;19.682;2023-02-15T03:57:43;101954.19;;;-3.14;100.00
76592;BME280;65481;47.600;19.682;2023-02-15T04:08:15;101948.03;;;-3.26;100.00
76592;BME280;65481;47.600;19.682;2023-02-15T04:13:15;101957.25;;;-3.22;100.00
76592;BME280;65481;47.600;19.682;2023-02-15T04:18:16;101961.63;;;-3.09;100.00
76592;BME280;65481;47.600;19.682;2023-02-15T04:23:16;101961.47;;;-3.06;100.00
76592;BME280;65481;47.600;19.682;2023-02-15T04:28:36;101961.28;;;-3.03;100.00
76592;BME280;65481;47.600;19.682;2023-02-15T04:33:36;101953.38;;;-3.14;100.00
76592;BME280;65481;47.600;19.682;2023-02-15T04:38:37;101956.03;;;-3.16;100.00
76592;BME280;65481;47.600;19.682;2023-02-15T04:43:37;101952.19;;;-3.23;100.00
76592;BME280;65481;47.600;19.682;2023-02-15T04:48:37;101950.81;;;-3.29;100.00
76592;BME280;65481;47.600;19.682;2023-02-15T04:53:38;101952.84;;;-3.34;100.00
76592;BME280;65481;47.600;19.682;2023-02-15T04:58:38;101949.41;;;-3.35;100.00
76592;BME280;65481;47.600;19.682;2023-02-15T05:03:41;101951.91;;;-3.33;100.00
76592;BME280;65481;47.600;19.682;2023-02-15T05:08:41;101954.31;;;-3.30;100.00
76592;BME280;65481;47.600;19.682;2023-02-15T05:13:42;101962.25;;;-3.33;100.00
76592;BME280;65481;47.600;19.682;2023-02-15T05:18:42;101964.09;;;-3.35;100.00
76592;BME280;65481;47.600;19.682;2023-02-15T05:23:43;101971.66;;;-3.32;100.00
76592;BME280;65481;47.600;19.682;2023-02-15T05:28:43;101974.06;;;-3.29;100.00
76592;BME280;65481;47.600;19.682;2023-02-15T05:33:44;101984.09;;;-3.24;100.00
76592;BME280;65481;47.600;19.682;2023-02-15T05:38:45;101989.41;;;-3.13;100.00
76592;BME280;65481;47.600;19.682;2023-02-15T05:43:46;101991.81;;;-3.10;100.00
76592;BME280;65481;47.600;19.682;2023-02-15T05:48:46;102000.03;;;-3.17;100.00
76592;BME280;65481;47.600;19.682;2023-02-15T05:53:47;102008.06;;;-3.22;100.00
76592;BME280;65481;47.600;19.682;2023-02-15T05:58:47;102007.03;;;-3.20;100.00
76592;BME280;65481;47.600;19.682;2023-02-15T06:03:48;102006.56;;;-3.12;100.00
76592;BME280;65481;47.600;19.682;2023-02-15T06:08:49;102013.09;;;-3.06;100.00
76592;BME280;65481;47.600;19.682;2023-02-15T06:13:50;102014.69;;;-3.03;100.00
76592;BME280;65481;47.600;19.682;2023-02-15T06:18:50;102011.44;;;-2.93;100.00
76592;BME280;65481;47.600;19.682;2023-02-15T06:23:51;102016.16;;;-2.85;100.00
76592;BME280;65481;47.600;19.682;2023-02-15T06:28:53;102010.13;;;-2.85;100.00
76592;BME280;65481;47.600;19.682;2023-02-15T06:33:54;102010.56;;;-2.79;100.00
76592;BME280;65481;47.600;19.682;2023-02-15T06:39:01;102015.19;;;-2.69;100.00
76592;BME280;65481;47.600;19.682;2023-02-15T06:44:03;102016.34;;;-2.61;100.00
76592;BME280;65481;47.600;19.682;2023-02-15T06:49:03;102025.09;;;-2.49;100.00
76592;BME280;65481;47.600;19.682;2023-02-15T06:54:04;102025.41;;;-2.13;100.00
76592;BME280;65481;47.600;19.682;2023-02-15T06:59:04;102021.13;;;-1.74;100.00
76592;BME280;65481;47.600;19.682;2023-02-15T07:04:05;102023.16;;;-1.27;100.00
76592;BME280;65481;47.600;19.682;2023-02-15T07:09:05;102033.69;;;-0.92;100.00
76592;BME280;65481;47.600;19.682;2023-02-15T07:14:06;102032.16;;;-0.21;100.00
76592;BME280;65481;47.600;19.682;2023-02-15T07:19:06;102031.97;;;0.40;100.00
76592;BME280;65481;47.600;19.682;2023-02-15T07:24:07;102023.09;;;1.23;100.00
76592;BME280;65481;47.600;19.682;2023-02-15T07:29:08;102024.06;;;2.08;100.00
76592;BME280;65481;47.600;19.682;2023-02-15T07:34:08;102017.38;;;3.08;100.00
76592;BME280;65481;47.600;19.682;2023-02-15T07:39:09;102029.78;;;3.85;100.00
76592;BME280;65481;47.600;19.682;2023-02-15T07:44:14;102027.53;;;4.29;96.88
76592;BME280;65481;47.600;19.682;2023-02-15T07:49:14;102016.25;;;4.94;90.43
76592;BME280;65481;47.600;19.682;2023-02-15T07:54:15;102013.31;;;5.61;84.70
76592;BME280;65481;47.600;19.682;2023-02-15T07:59:15;102013.91;;;6.18;78.90
76592;BME280;65481;47.600;19.682;2023-02-15T08:04:16;102010.38;;;6.62;74.49
76592;BME280;65481;47.600;19.682;2023-02-15T08:09:18;102000.47;;;6.90;71.98
76592;BME280;65481;47.600;19.682;2023-02-15T08:14:21;102001.25;;;7.34;68.87
76592;BME280;65481;47.600;19.682;2023-02-15T08:19:27;102002.06;;;7.92;65.71
76592;BME280;65481;47.600;19.682;2023-02-15T08:24:30;102001.13;;;8.49;61.57
76592;BME280;65481;47.600;19.682;2023-02-15T08:29:32;101997.53;;;9.14;59.76
76592;BME280;65481;47.600;19.682;2023-02-15T08:34:36;102009.78;;;9.68;56.95
76592;BME280;65481;47.600;19.682;2023-02-15T08:39:37;102005.06;;;9.63;57.10
76592;BME280;65481;47.600;19.682;2023-02-15T08:44:38;101997.72;;;10.12;55.61
76592;BME280;65481;47.600;19.682;2023-02-15T08:49:38;101986.75;;;10.90;53.05
76592;BME280;65481;47.600;19.682;2023-02-15T08:54:39;101988.69;;;11.46;51.38
76592;BME280;65481;47.600;19.682;2023-02-15T08:59:39;101989.47;;;11.69;50.08
76592;BME280;65481;47.600;19.682;2023-02-15T09:04:40;101985.75;;;12.13;49.04
76592;BME280;65481;47.600;19.682;2023-02-15T09:09:40;101996.78;;;12.65;48.03
76592;BME280;65481;47.600;19.682;2023-02-15T09:14:40;101983.84;;;13.04;46.79
76592;BME280;65481;47.600;19.682;2023-02-15T09:19:41;101980.22;;;13.39;46.09
76592;BME280;65481;47.600;19.682;2023-02-15T09:24:41;101981.84;;;13.80;44.68
76592;BME280;65481;47.600;19.682;2023-02-15T09:29:42;101981.88;;;13.87;44.72
76592;BME280;65481;47.600;19.682;2023-02-15T09:34:43;101966.31;;;13.97;43.98
76592;BME280;65481;47.600;19.682;2023-02-15T09:39:43;101963.25;;;14.52;42.71
76592;BME280;65481;47.600;19.682;2023-02-15T09:50:08;101944.81;;;14.26;42.25
76592;BME280;65481;47.600;19.682;2023-02-15T09:55:24;101935.19;;;14.31;42.35
76592;BME280;65481;47.600;19.682;2023-02-15T10:16:54;101924.94;;;14.42;40.83
76592;BME280;65481;47.600;19.682;2023-02-15T10:27:16;101925.06;;;14.08;42.43
76592;BME280;65481;47.600;19.682;2023-02-15T10:32:26;101925.19;;;14.27;41.82
76592;BME280;65481;47.600;19.682;2023-02-15T10:37:57;101920.06;;;13.73;43.03
76592;BME280;65481;47.600;19.682;2023-02-15T11:04:40;101892.97;;;14.23;42.84
76592;BME280;65481;47.600;19.682;2023-02-15T11:09:48;101887.81;;;14.28;42.57
76592;BME280;65481;47.600;19.682;2023-02-15T11:14:58;101885.78;;;14.23;41.78
76592;BME280;65481;47.600;19.682;2023-02-15T11:25:33;101867.59;;;14.27;41.90
76592;BME280;65481;47.600;19.682;2023-02-15T11:30:47;101860.19;;;14.36;41.66
76592;BME280;65481;47.600;19.682;2023-02-15T11:36:03;101850.34;;;14.11;42.09
76592;BME280;65481;47.600;19.682;2023-02-15T11:41:09;101838.75;;;14.37;41.65
76592;BME280;65481;47.600;19.682;2023-02-15T11:46:11;101840.53;;;14.50;41.46
76592;BME280;65481;47.600;19.682;2023-02-15T11:51:16;101832.66;;;14.30;42.38
76592;BME280;65481;47.600;19.682;2023-02-15T11:56:20;101828.22;;;14.17;42.38
76592;BME280;65481;47.600;19.682;2023-02-15T12:01:31;101827.19;;;14.18;41.68
76592;BME280;65481;47.600;19.682;2023-02-15T12:06:35;101825.69;;;14.36;42.43
76592;BME280;65481;47.600;19.682;2023-02-15T12:11:40;101825.38;;;14.19;43.09
76592;BME280;65481;47.600;19.682;2023-02-15T12:16:50;101812.75;;;14.07;42.27
76592;BME280;65481;47.600;19.682;2023-02-15T12:21:52;101803.34;;;14.12;42.58
76592;BME280;65481;47.600;19.682;2023-02-15T12:27:03;101792.41;;;14.01;42.80
76592;BME280;65481;47.600;19.682;2023-02-15T12:32:04;101787.28;;;14.00;42.61
76592;BME280;65481;47.600;19.682;2023-02-15T12:37:29;101776.25;;;14.03;42.62
76592;BME280;65481;47.600;19.682;2023-02-15T12:42:43;101768.78;;;13.86;42.85
76592;BME280;65481;47.600;19.682;2023-02-15T12:47:44;101764.03;;;13.56;43.44
76592;BME280;65481;47.600;19.682;2023-02-15T12:52:47;101760.13;;;13.59;43.26
76592;BME280;65481;47.600;19.682;2023-02-15T12:57:48;101750.59;;;13.38;43.98
76592;BME280;65481;47.600;19.682;2023-02-15T13:02:55;101753.06;;;13.26;44.46
76592;BME280;65481;47.600;19.682;2023-02-15T13:07:58;101737.69;;;13.55;43.53
76592;BME280;65481;47.600;19.682;2023-02-15T13:12:59;101730.03;;;13.26;43.92
76592;BME280;65481;47.600;19.682;2023-02-15T13:18:04;101728.69;;;13.03;45.02
76592;BME280;65481;47.600;19.682;2023-02-15T13:23:27;101727.66;;;12.84;45.88
76592;BME280;65481;47.600;19.682;2023-02-15T13:28:39;101716.00;;;13.06;45.32
76592;BME280;65481;47.600;19.682;2023-02-15T13:33:46;101710.47;;;13.21;44.80
76592;BME280;65481;47.600;19.682;2023-02-15T13:44:39;101704.00;;;13.03;45.46
76592;BME280;65481;47.600;19.682;2023-02-15T13:50:10;101704.25;;;12.95;45.60
76592;BME280;65481;47.600;19.682;2023-02-15T14:16:00;101705.00;;;11.94;47.69
76592;BME280;65481;47.600;19.682;2023-02-15T14:26:37;101700.53;;;11.33;49.98
76592;BME280;65481;47.600;19.682;2023-02-15T14:31:45;101696.59;;;11.15;50.70
76592;BME280;65481;47.600;19.682;2023-02-15T14:36:48;101698.50;;;10.93;51.88
76592;BME280;65481;47.600;19.682;2023-02-15T14:41:53;101696.56;;;10.73;52.72
76592;BME280;65481;47.600;19.682;2023-02-15T14:47:08;101704.13;;;10.55;53.38
76592;BME280;65481;47.600;19.682;2023-02-15T14:52:11;101698.94;;;10.40;53.77
76592;BME280;65481;47.600;19.682;2023-02-15T15:02:16;101698.16;;;10.03;55.78
76592;BME280;65481;47.600;19.682;2023-02-15T15:07:23;101693.31;;;9.84;56.08
76592;BME280;65481;47.600;19.682;2023-02-15T15:22:33;101682.41;;;9.36;57.23
76592;BME280;65481;47.600;19.682;2023-02-15T15:27:53;101682.16;;;9.16;57.90
76592;BME280;65481;47.600;19.682;2023-02-15T15:48:38;101667.44;;;8.15;61.02
76592;BME280;65481;47.600;19.682;2023-02-15T15:53:42;101672.34;;;7.95;61.04
76592;BME280;65481;47.600;19.682;2023-02-15T15:58:52;101678.00;;;7.83;61.27
76592;BME280;65481;47.600;19.682;2023-02-15T16:03:57;101677.16;;;7.60;61.76
76592;BME280;65481;47.600;19.682;2023-02-15T16:09:14;101671.88;;;7.28;62.72
76592;BME280;65481;47.600;19.682;2023-02-15T16:14:30;101681.75;;;7.18;62.31
76592;BME280;65481;47.600;19.682;2023-02-15T16:19:42;101679.66;;;7.05;62.42
76592;BME280;65481;47.600;19.682;2023-02-15T16:30:45;101676.44;;;6.70;63.63
76592;BME280;65481;47.600;19.682;2023-02-15T16:35:22;101678.59;;;6.58;64.11
76592;BME280;65481;47.600;19.682;2023-02-15T16:45:26;101676.31;;;6.38;65.66
76592;BME280;65481;47.600;19.682;2023-02-15T16:50:32;101681.38;;;6.23;66.65
76592;BME280;65481;47.600;19.682;2023-02-15T16:55:35;101681.38;;;6.23;66.02
76592;BME280;65481;47.600;19.682;2023-02-15T17:00:38;101676.94;;;6.24;65.83
76592;BME280;65481;47.600;19.682;2023-02-15T17:05:53;101684.34;;;6.20;67.07
76592;BME280;65481;47.600;19.682;2023-02-15T17:16:29;101684.13;;;5.97;68.31
76592;BME280;65481;47.600;19.682;2023-02-15T17:21:37;101682.56;;;5.69;69.87
76592;BME280;65481;47.600;19.682;2023-02-15T17:26:41;101680.84;;;5.43;71.69
76592;BME280;65481;47.600;19.682;2023-02-15T17:31:47;101677.00;;;5.21;73.83
76592;BME280;65481;47.600;19.682;2023-02-15T17:37:00;101676.34;;;4.93;76.01
76592;BME280;65481;47.600;19.682;2023-02-15T17:42:02;101687.56;;;4.85;76.43
76592;BME280;65481;47.600;19.682;2023-02-15T17:47:04;101676.72;;;4.98;75.06
76592;BME280;65481;47.600;19.682;2023-02-15T17:52:05;101680.00;;;5.00;74.89
76592;BME280;65481;47.600;19.682;2023-02-15T17:57:12;101685.84;;;4.94;75.23
76592;BME280;65481;47.600;19.682;2023-02-15T18:02:13;101681.22;;;4.88;75.27
76592;BME280;65481;47.600;19.682;2023-02-15T18:07:33;101683.13;;;4.77;75.98
76592;BME280;65481;47.600;19.682;2023-02-15T18:12:52;101683.22;;;4.67;77.00
76592;BME280;65481;47.600;19.682;2023-02-15T18:17:56;101677.91;;;4.59;77.70
76592;BME280;65481;47.600;19.682;2023-02-15T18:22:56;101681.97;;;4.53;78.16
76592;BME280;65481;47.600;19.682;2023-02-15T18:27:57;101680.56;;;4.41;78.94
76592;BME280;65481;47.600;19.682;2023-02-15T18:32:59;101680.47;;;4.33;78.88
76592;BME280;65481;47.600;19.682;2023-02-15T18:38:00;101677.66;;;4.26;79.86
76592;BME280;65481;47.600;19.682;2023-02-15T18:43:02;101694.91;;;4.19;80.96
76592;BME280;65481;47.600;19.682;2023-02-15T18:48:04;101689.38;;;4.04;82.25
76592;BME280;65481;47.600;19.682;2023-02-15T18:53:18;101676.66;;;3.91;83.91
76592;BME280;65481;47.600;19.682;2023-02-15T18:58:20;101682.19;;;3.88;83.69
76592;BME280;65481;47.600;19.682;2023-02-15T19:03:24;101688.00;;;3.82;84.15
76592;BME280;65481;47.600;19.682;2023-02-15T19:08:26;101693.53;;;3.78;84.17
76592;BME280;65481;47.600;19.682;2023-02-15T19:13:27;101688.81;;;3.64;85.00
76592;BME280;65481;47.600;19.682;2023-02-15T19:18:29;101685.28;;;3.55;85.70
76592;BME280;65481;47.600;19.682;2023-02-15T19:23:30;101682.56;;;3.47;87.18
76592;BME280;65481;47.600;19.682;2023-02-15T19:28:33;101680.38;;;3.42;87.37
76592;BME280;65481;47.600;19.682;2023-02-15T19:33:34;101688.66;;;3.38;87.73
76592;BME280;65481;47.600;19.682;2023-02-15T19:38:37;101682.34;;;3.30;90.00
76592;BME280;65481;47.600;19.682;2023-02-15T19:43:39;101680.06;;;3.17;90.26
76592;BME280;65481;47.600;19.682;2023-02-15T19:48:40;101674.78;;;2.99;89.92
76592;BME280;65481;47.600;19.682;2023-02-15T19:53:43;101679.34;;;2.78;90.60
76592;BME280;65481;47.600;19.682;2023-02-15T19:58:45;101677.31;;;2.71;89.65
76592;BME280;65481;47.600;19.682;2023-02-15T20:03:46;101674.28;;;2.56;88.81
76592;BME280;65481;47.600;19.682;2023-02-15T20:08:47;101673.34;;;2.38;88.34
76592;BME280;65481;47.600;19.682;2023-02-15T20:13:48;101675.00;;;2.29;89.34
76592;BME280;65481;47.600;19.682;2023-02-15T20:18:49;101676.94;;;2.27;88.39
76592;BME280;65481;47.600;19.682;2023-02-15T20:23:51;101670.88;;;2.07;89.04
76592;BME280;65481;47.600;19.682;2023-02-15T20:28:52;101672.09;;;1.73;91.31
76592;BME280;65481;47.600;19.682;2023-02-15T20:33:53;101663.28;;;1.55;93.43
76592;BME280;65481;47.600;19.682;2023-02-15T20:38:56;101662.63;;;1.31;95.27
76592;BME280;65481;47.600;19.682;2023-02-15T20:44:00;101667.31;;;1.38;94.72
76592;BME280;65481;47.600;19.682;2023-02-15T20:49:03;101672.66;;;1.36;94.73
76592;BME280;65481;47.600;19.682;2023-02-15T20:54:25;101670.97;;;1.25;96.30
76592;BME280;65481;47.600;19.682;2023-02-15T20:59:30;101668.63;;;1.01;100.00
76592;BME280;65481;47.600;19.682;2023-02-15T21:04:32;101670.38;;;0.90;100.00
76592;BME280;65481;47.600;19.682;2023-02-15T21:09:33;101666.31;;;0.77;100.00
76592;BME280;65481;47.600;19.682;2023-02-15T21:14:34;101665.56;;;0.65;100.00
76592;BME280;65481;47.600;19.682;2023-02-15T21:19:35;101672.69;;;0.63;100.00
76592;BME280;65481;47.600;19.682;2023-02-15T21:24:37;101668.84;;;0.67;100.00
76592;BME280;65481;47.600;19.682;2023-02-15T21:29:38;101660.50;;;0.63;100.00
76592;BME280;65481;47.600;19.682;2023-02-15T21:34:40;101661.34;;;0.64;100.00
76592;BME280;65481;47.600;19.682;2023-02-15T21:39:41;101665.94;;;0.60;100.00
76592;BME280;65481;47.600;19.682;2023-02-15T21:44:41;101664.69;;;0.54;100.00
76592;BME280;65481;47.600;19.682;2023-02-15T21:50:01;101661.63;;;0.49;100.00
76592;BME280;65481;47.600;19.682;2023-02-15T21:55:22;101667.66;;;0.50;100.00
76592;BME280;65481;47.600;19.682;2023-02-15T22:00:24;101663.34;;;0.60;100.00
76592;BME280;65481;47.600;19.682;2023-02-15T22:05:30;101667.13;;;0.56;100.00
76592;BME280;65481;47.600;19.682;2023-02-15T22:10:31;101671.63;;;0.33;100.00
76592;BME280;65481;47.600;19.682;2023-02-15T22:15:36;101669.00;;;0.11;100.00
76592;BME280;65481;47.600;19.682;2023-02-15T22:20:36;101667.97;;;-0.09;100.00
76592;BME280;65481;47.600;19.682;2023-02-15T22:25:37;101674.25;;;-0.11;100.00
76592;BME280;65481;47.600;19.682;2023-02-15T22:30:37;101677.31;;;-0.18;100.00
76592;BME280;65481;47.600;19.682;2023-02-15T22:35:38;101682.88;;;-0.22;100.00
76592;BME280;65481;47.600;19.682;2023-02-15T22:40:39;101672.81;;;-0.16;100.00
76592;BME280;65481;47.600;19.682;2023-02-15T22:45:39;101674.34;;;-0.02;100.00
76592;BME280;65481;47.600;19.682;2023-02-15T22:50:40;101669.97;;;-0.01;100.00
76592;BME280;65481;47.600;19.682;2023-02-15T22:55:41;101676.13;;;-0.13;100.00
76592;BME280;65481;47.600;19.682;2023-02-15T23:00:41;101672.63;;;-0.35;100.00
76592;BME280;65481;47.600;19.682;2023-02-15T23:05:43;101672.75;;;-0.37;100.00
76592;BME280;65481;47.600;19.682;2023-02-15T23:10:45;101674.44;;;-0.47;100.00
76592;BME280;65481;47.600;19.682;2023-02-15T23:15:54;101671.59;;;-0.55;100.00
76592;BME280;65481;47.600;19.682;2023-02-15T23:21:00;101666.16;;;-0.52;100.00
76592;BME280;65481;47.600;19.682;2023-02-15T23:26:02;101663.34;;;-0.83;100.00
76592;BME280;65481;47.600;19.682;2023-02-15T23:31:13;101666.16;;;-0.98;100.00
76592;BME280;65481;47.600;19.682;2023-02-15T23:36:33;101659.94;;;-0.84;100.00
76592;BME280;65481;47.600;19.682;2023-02-15T23:41:34;101658.03;;;-0.82;100.00
76592;BME280;65481;47.600;19.682;2023-02-15T23:46:44;101646.59;;;-1.13;100.00
76592;BME280;65481;47.600;19.682;2023-02-15T23:51:49;101648.94;;;-1.22;100.00
76592;BME280;65481;47.600;19.682;2023-02-15T23:56:58;101646.56;;;-1.25;100.00
